Prescott, IA (50859)

11:30 PM CDT on March 27, 2017 (GMT -0500)
Out Here In The Wild | | Change Station

Elev 1269 ft 41.09 °N, 94.52 °W | Updated 58 seconds ago

Overcast
Overcast
46.3 °F
Feels Like 46 °F
N
3.0
Wind Variable Wind from NE
Gusts 12.0 mph

Today
High -- | Low -- °F
--% Chance of Precip.
Yesterday
High -- | Low -- °F
Precip. -- in
Pressure 30.02 in
Visibility 10.0 miles
Clouds Overcast 1800 ft
Windchill 46 °F
Dew Point 44 °F
Humidity 90%
Rainfall 0.00 in
Snow Depth Not available.
7:09 AM 7:38 PM
New Moon, 0% visible
METAR KCSQ 280415Z AUTO 07005KT 10SM OVC018 08/05 A3002 RMK AO2
Pressure 30.02 in
Visibility 10.0 miles
Clouds Overcast 1800 ft
Windchill 46 °F
Dew Point 44 °F
Humidity 90%
Rainfall 0.00 in
Snow Depth Not available.
7:09 AM 7:38 PM
New Moon, 0% visible
METAR KCSQ 280415Z AUTO 07005KT 10SM OVC018 08/05 A3002 RMK AO2

Get Severe Weather Alerts

Thanks for signing up!

Be on the lookout for a verification email in your inbox.

You'll start receiving the daily forecast at 8 AM.

×

10-Day Weather Forecast

Almanac

Astronomy

Mar. 27, 2017 Rise Set
Actual Time
Civil Twilight
Nautical Twilight
Astronomical Twilight
Moon
Length of Visible Light
Length of Day
Tomorrow will be .
, % of the Moon is Illuminated

Today's Extremes

State Highs State Lows

Community

WunderPhotos

Upload Photos

1,962,540 photos uploaded!

WunderBlog® & News

Nearby

Air Quality

  Air Quality AQ Index Pollutant
Not available.

Snow Depth

Station Depth Elevation

Earthquake Activity

City Distance Mag. Time & Date
Minimum magnitude displayed is 2.5.

Earthquake Activity

City Distance Mag. Time & Date
Minimum magnitude displayed is 2.5.

Coastal Water Temperatures

Place Temperature

Stations

Nearby Weather Stations

Station Location Temp. Windchill Dew Point Humidity Wind Precip. Elev Updated Type
                   

Watches & Warnings

There are currently no watches in effect.